New Franken, Wisconsin
Current Conditions -  °F | °C
As of 6:53 AM on Sunday 21 Dec 2014 (Local Time) from KGRB Reporting Station
Haze Haze  
Wind Chill: 24°   Ceiling: 3400
Heat Index: 31°   Visibility: 5mi
Dew Point: 27°   Wind: 7mph
Humidity: 85%   Direction: 160°SSE
Pressure: 30.14"   Gusts: NA
Location:  44.53°N, 87.83°W
Report Text: KGRB 211253Z 16006KT 5SM BR SCT023 OVC034 M01/M03 A3014 RMK AO2 SLP216 T10061028
Loading
Personal Weather Stations






























Interactive Weather Map New forecast layout! Learn more

10-Day Weather Forecast

Advertisements
Track Severe Weather on mobile